Time;durP1;ratioP1;P1;durP2;ratioP2;P2;SDS_P1;SDS_P2;PMS_P1;PMS_P2;Temp;Humidity;BMP_temperature;BMP_pressure;BME280_temperature;BME280_humidity;BME280_pressure;Samples;Min_cycle;Max_cycle;Signal;HPM_P1;HPM_P2
2022/06/08 00:02:03;;;;;;;5.83;3.17;;;14.40;99.90;;;;;;5093954;28;20639;-38
2022/06/08 00:04:29;;;;;;;6.30;2.80;;;14.40;99.90;;;;;;5093096;28;20259;-41
2022/06/08 00:06:54;;;;;;;9.00;2.57;;;14.40;99.90;;;;;;5092745;28;20650;-41
2022/06/08 00:09:20;;;;;;;5.50;2.80;;;14.40;99.90;;;;;;5093256;28;20251;-44
2022/06/08 00:11:46;;;;;;;9.70;2.80;;;14.30;99.90;;;;;;5093575;28;20166;-41
2022/06/08 00:14:13;;;;;;;3.07;2.30;;;14.30;99.90;;;;;;5093803;28;20178;-43
2022/06/08 00:16:39;;;;;;;5.60;2.70;;;14.30;99.90;;;;;;5093561;28;20635;-41
2022/06/08 00:19:05;;;;;;;6.03;3.10;;;14.30;99.90;;;;;;5093436;28;20213;-40
2022/06/08 00:21:30;;;;;;;3.93;2.43;;;14.30;99.90;;;;;;5093209;28;20174;-41
2022/06/08 00:23:56;;;;;;;4.00;2.40;;;14.30;99.90;;;;;;5075110;28;20269;-41
2022/06/08 00:26:24;;;;;;;5.57;2.30;;;14.30;99.90;;;;;;5093285;28;20294;-42
2022/06/08 00:28:50;;;;;;;9.47;2.90;;;14.30;99.90;;;;;;5093318;28;20202;-41
2022/06/08 00:31:16;;;;;;;5.07;2.30;;;14.30;99.90;;;;;;5093906;28;20612;-43
2022/06/08 00:33:41;;;;;;;4.63;2.87;;;14.30;99.90;;;;;;5093314;28;20171;-39
2022/06/08 00:36:07;;;;;;;5.03;2.30;;;14.30;99.90;;;;;;5093023;28;20175;-41
2022/06/08 00:38:33;;;;;;;3.90;2.30;;;14.30;99.90;;;;;;5093039;28;20202;-43
2022/06/08 00:41:08;;;;;;;4.03;2.40;;;14.30;99.90;;;;;;5094011;28;20179;-40
2022/06/08 00:43:35;;;;;;;3.73;2.10;;;14.30;99.90;;;;;;5093346;28;20579;-41
2022/06/08 00:46:02;;;;;;;6.00;2.23;;;14.30;99.90;;;;;;5092951;28;20291;-40
2022/06/08 00:48:32;;;;;;;5.67;2.37;;;14.30;99.90;;;;;;5092911;28;20743;-40
2022/06/08 00:50:57;;;;;;;4.70;2.10;;;14.30;99.90;;;;;;5093094;28;20171;-41
2022/06/08 00:53:34;;;;;;;2.60;1.90;;;14.30;99.90;;;;;;5092914;28;20194;-43
2022/06/08 00:56:03;;;;;;;4.30;1.90;;;14.30;99.90;;;;;;5093170;28;20528;-41
2022/06/08 00:58:31;;;;;;;2.43;2.23;;;14.20;99.90;;;;;;5074797;28;20256;-39
2022/06/08 01:01:00;;;;;;;2.40;1.90;;;14.20;99.90;;;;;;5092821;28;20198;-39
2022/06/08 01:03:27;;;;;;;4.20;2.20;;;14.20;99.90;;;;;;5092847;28;20175;-41
2022/06/08 01:06:06;;;;;;;4.43;2.13;;;14.20;99.90;;;;;;5093115;28;20211;-42
2022/06/08 01:08:35;;;;;;;7.63;2.90;;;14.10;99.90;;;;;;5092986;28;20261;-40
2022/06/08 01:11:12;;;;;;;2.17;1.97;;;14.10;99.90;;;;;;5092833;28;20650;-42
2022/06/08 01:13:39;;;;;;;4.67;2.07;;;14.10;99.90;;;;;;5074688;28;20253;-40
2022/06/08 01:16:08;;;;;;;8.10;2.27;;;14.00;99.90;;;;;;5093557;28;20182;-46
2022/06/08 01:18:35;;;;;;;3.10;2.00;;;14.00;99.90;;;;;;5097223;28;20259;-42
2022/06/08 01:21:35;;;;;;;8.13;2.33;;;13.90;99.90;;;;;;5096869;28;20183;-41
2022/06/08 01:24:04;;;;;;;2.57;2.17;;;13.90;99.90;;;;;;5096263;28;20556;-44
2022/06/08 01:26:55;;;;;;;3.50;2.07;;;13.90;99.90;;;;;;5096087;28;20671;-44
2022/06/08 01:29:36;;;;;;;5.40;2.20;;;13.80;99.90;;;;;;5096150;28;20195;-44
2022/06/08 01:32:08;;;;;;;4.03;2.03;;;13.80;99.90;;;;;;5096643;28;20167;-46
2022/06/08 01:34:46;;;;;;;4.90;2.30;;;13.80;99.90;;;;;;5096006;28;20590;-45
2022/06/08 01:37:29;;;;;;;3.27;2.07;;;13.70;99.90;;;;;;5096154;28;20159;-45
2022/06/08 01:40:10;;;;;;;2.73;1.77;;;13.70;99.90;;;;;;5095890;28;20244;-44
2022/06/08 01:42:43;;;;;;;4.07;2.20;;;13.60;99.90;;;;;;5095930;28;20190;-45
2022/06/08 01:45:37;;;;;;;3.87;2.03;;;13.60;99.90;;;;;;5095754;28;20213;-45
2022/06/08 01:48:36;;;;;;;4.07;2.13;;;13.50;99.90;;;;;;5096178;28;20263;-45
2022/06/08 01:51:14;;;;;;;3.33;2.00;;;13.50;99.90;;;;;;5095845;28;20208;-44
2022/06/08 01:54:00;;;;;;;2.63;2.03;;;13.40;99.90;;;;;;5095648;28;20167;-45
2022/06/08 01:56:52;;;;;;;4.47;2.27;;;13.40;99.90;;;;;;5095889;28;20254;-43
2022/06/08 01:59:43;;;;;;;5.83;2.20;;;13.40;99.90;;;;;;5095958;28;20238;-44
2022/06/08 02:02:24;;;;;;;2.10;2.00;;;13.40;99.90;;;;;;5095701;28;20658;-45
2022/06/08 02:05:01;;;;;;;6.07;2.20;;;13.20;99.90;;;;;;5077381;28;20173;-44
2022/06/08 02:07:39;;;;;;;2.33;2.00;;;13.30;99.90;;;;;;5095367;28;20166;-44
2022/06/08 02:10:12;;;;;;;4.07;1.90;;;13.20;99.90;;;;;;5095582;28;20163;-45
2022/06/08 02:12:44;;;;;;;2.40;1.77;;;13.20;99.90;;;;;;5095580;28;20163;-47
2022/06/08 02:15:19;;;;;;;3.47;1.87;;;13.20;99.90;;;;;;5095295;28;20616;-43
2022/06/08 02:17:52;;;;;;;4.97;1.97;;;13.10;99.90;;;;;;5095132;28;20166;-44
2022/06/08 02:20:28;;;;;;;3.30;2.10;;;13.10;99.90;;;;;;5095728;28;20513;-46
2022/06/08 02:23:00;;;;;;;4.03;1.87;;;13.10;99.90;;;;;;5095296;28;20638;-45
2022/06/08 02:25:36;;;;;;;4.30;1.87;;;13.20;99.90;;;;;;5095650;28;20203;-44
2022/06/08 02:28:08;;;;;;;5.47;2.20;;;13.10;99.90;;;;;;5094591;28;20199;-45
2022/06/08 02:30:47;;;;;;;4.63;2.00;;;13.00;99.90;;;;;;5095526;28;20171;-44
2022/06/08 02:36:14;;;;;;;6.70;2.20;;;13.00;99.90;;;;;;5095423;28;20178;-44
2022/06/08 02:38:44;;;;;;;2.63;2.17;;;13.00;99.90;;;;;;5094925;28;20194;-43
2022/06/08 02:41:11;;;;;;;3.17;1.87;;;13.00;99.90;;;;;;5095008;28;20178;-45
2022/06/08 02:43:53;;;;;;;4.80;2.43;;;13.00;99.90;;;;;;5094654;28;20179;-45
2022/06/08 02:46:40;;;;;;;4.17;2.17;;;12.90;99.90;;;;;;5094562;28;20200;-45
2022/06/08 02:49:07;;;;;;;5.90;2.20;;;12.90;99.90;;;;;;5094656;28;20201;-43
2022/06/08 02:51:33;;;;;;;7.57;1.97;;;12.90;99.90;;;;;;5094784;28;20647;-46
2022/06/08 02:54:05;;;;;;;2.13;1.93;;;12.80;99.90;;;;;;5094495;28;20657;-44
2022/06/08 02:56:38;;;;;;;4.10;1.90;;;12.80;99.90;;;;;;5094670;28;20232;-44
2022/06/08 02:59:20;;;;;;;3.20;2.27;;;12.80;99.90;;;;;;5094497;28;20234;-43
2022/06/08 03:02:17;;;;;;;4.53;2.20;;;12.80;99.90;;;;;;5076076;28;20194;-45
2022/06/08 03:04:49;;;;;;;4.00;2.30;;;12.70;99.90;;;;;;5094400;28;20248;-44
2022/06/08 03:07:21;;;;;;;3.27;1.70;;;12.70;99.90;;;;;;5094207;28;20252;-44
2022/06/08 03:09:48;;;;;;;7.30;2.30;;;12.70;99.90;;;;;;5094687;28;20222;-44
2022/06/08 03:12:26;;;;;;;6.43;2.40;;;12.60;99.90;;;;;;5094151;28;20171;-44
2022/06/08 03:14:52;;;;;;;3.63;1.90;;;12.60;99.90;;;;;;5094488;28;20183;-43
2022/06/08 03:17:25;;;;;;;2.30;2.10;;;12.60;99.90;;;;;;5076065;28;20208;-45
2022/06/08 03:19:51;;;;;;;3.93;2.50;;;12.60;99.90;;;;;;5094181;28;20593;-44
2022/06/08 03:22:17;;;;;;;4.77;2.30;;;12.60;99.90;;;;;;5093842;28;20175;-43
2022/06/08 03:24:43;;;;;;;2.37;1.90;;;12.50;99.90;;;;;;5094234;28;20174;-46
2022/06/08 03:27:09;;;;;;;3.63;1.87;;;12.50;99.90;;;;;;5093914;28;20206;-43
2022/06/08 03:29:35;;;;;;;4.47;2.07;;;12.50;99.90;;;;;;5093913;28;20283;-44
2022/06/08 03:32:01;;;;;;;5.10;2.20;;;12.50;99.90;;;;;;5093808;28;20174;-45
2022/06/08 03:34:27;;;;;;;5.30;2.20;;;12.50;99.90;;;;;;5075716;28;20172;-46
2022/06/08 03:36:52;;;;;;;7.03;2.23;;;12.50;99.90;;;;;;5093684;28;20259;-46
2022/06/08 03:39:18;;;;;;;4.33;1.80;;;12.50;99.90;;;;;;5093389;28;20569;-44
2022/06/08 03:41:44;;;;;;;4.07;1.87;;;12.50;99.90;;;;;;5093581;28;20204;-43
2022/06/08 03:44:10;;;;;;;4.37;2.17;;;12.50;99.90;;;;;;5075432;28;20266;-43
2022/06/08 03:46:40;;;;;;;8.00;2.50;;;12.50;99.90;;;;;;5093823;28;20214;-43
2022/06/08 03:49:07;;;;;;;5.20;2.30;;;12.50;99.90;;;;;;5093590;28;20531;-43
2022/06/08 03:51:34;;;;;;;6.63;2.50;;;12.50;99.90;;;;;;5093761;28;20270;-42
2022/06/08 03:54:08;;;;;;;5.23;2.90;;;12.60;99.90;;;;;;5093689;28;20203;-44
2022/06/08 03:56:36;;;;;;;4.40;2.37;;;12.60;99.90;;;;;;5093566;28;20174;-40
2022/06/08 03:59:02;;;;;;;7.67;2.23;;;12.70;99.90;;;;;;5075329;28;20286;-42
2022/06/08 04:01:28;;;;;;;4.87;2.83;;;12.70;99.90;;;;;;5058469;28;20678;-41
2022/06/08 04:03:55;;;;;;;7.70;2.70;;;12.70;99.90;;;;;;5093634;28;20194;-42
2022/06/08 04:06:21;;;;;;;6.00;2.33;;;12.80;99.90;;;;;;5093240;28;20207;-41
2022/06/08 04:08:47;;;;;;;2.60;2.00;;;12.80;99.90;;;;;;5093530;28;20203;-40
2022/06/08 04:11:13;;;;;;;7.00;3.00;;;12.80;99.90;;;;;;5093201;28;20262;-38
2022/06/08 04:13:40;;;;;;;4.53;2.47;;;12.80;99.90;;;;;;5093671;28;20186;-41
2022/06/08 04:16:06;;;;;;;3.90;2.27;;;12.90;99.90;;;;;;5093537;28;20639;-38
2022/06/08 04:18:31;;;;;;;5.97;2.20;;;13.00;99.90;;;;;;5093126;28;20194;-41
2022/06/08 04:21:00;;;;;;;5.87;2.20;;;13.00;99.90;;;;;;5093345;28;20240;-41
2022/06/08 04:23:28;;;;;;;7.83;2.57;;;13.10;99.90;;;;;;5093207;28;20547;-43
2022/06/08 04:25:55;;;;;;;4.47;2.03;;;13.20;99.90;;;;;;5093064;28;20213;-41
2022/06/08 04:28:21;;;;;;;8.37;2.30;;;13.20;99.90;;;;;;5093185;28;20248;-41
2022/06/08 04:30:47;;;;;;;7.10;2.30;;;13.30;99.90;;;;;;5093424;28;20259;-40
2022/06/08 04:33:14;;;;;;;7.20;1.97;;;13.40;99.90;;;;;;5093355;28;20182;-41
2022/06/08 04:35:40;;;;;;;4.13;2.13;;;13.40;99.90;;;;;;5075052;28;20214;-42
2022/06/08 04:38:06;;;;;;;2.10;1.90;;;13.50;99.90;;;;;;5093167;28;20202;-41
2022/06/08 04:40:33;;;;;;;5.63;2.00;;;13.60;99.90;;;;;;5093154;28;20171;-42
2022/06/08 04:42:59;;;;;;;5.23;1.60;;;13.70;99.90;;;;;;5093273;28;20187;-42
2022/06/08 04:45:25;;;;;;;4.80;1.73;;;13.80;99.90;;;;;;5093168;28;20217;-43
2022/06/08 04:47:51;;;;;;;4.10;1.67;;;13.90;99.90;;;;;;5092930;28;20198;-43
2022/06/08 04:50:16;;;;;;;4.33;2.07;;;14.00;99.90;;;;;;5092983;28;20517;-42
2022/06/08 04:52:42;;;;;;;2.37;1.80;;;14.10;99.90;;;;;;5096140;28;20186;-40
2022/06/08 04:55:10;;;;;;;6.27;1.87;;;14.20;99.90;;;;;;5096816;28;20335;-42
2022/06/08 04:57:37;;;;;;;3.10;2.00;;;14.40;99.90;;;;;;5096683;28;20258;-42
2022/06/08 05:00:09;;;;;;;5.40;1.87;;;14.50;99.90;;;;;;5097196;28;20191;-42
2022/06/08 05:02:44;;;;;;;3.17;1.93;;;14.60;99.90;;;;;;5097336;28;20178;-45
2022/06/08 05:05:31;;;;;;;5.30;1.73;;;14.70;99.90;;;;;;5097140;28;20185;-43
2022/06/08 05:07:58;;;;;;;4.10;1.70;;;14.80;99.90;;;;;;5096356;28;20207;-43
2022/06/08 05:10:26;;;;;;;5.03;1.70;;;14.90;99.90;;;;;;5096590;28;20254;-45
2022/06/08 05:12:52;;;;;;;3.83;1.57;;;14.90;99.90;;;;;;5078192;28;20191;-44
2022/06/08 05:15:22;;;;;;;6.70;2.00;;;15.00;99.90;;;;;;5097391;28;20179;-43
2022/06/08 05:17:47;;;;;;;8.27;1.87;;;15.00;99.90;;;;;;5096427;28;20171;-45
2022/06/08 05:20:15;;;;;;;2.97;1.87;;;15.10;99.90;;;;;;5078104;28;20171;-44
2022/06/08 05:22:40;;;;;;;5.27;2.30;;;15.10;99.90;;;;;;5096510;28;20178;-44
2022/06/08 05:25:11;;;;;;;2.40;1.90;;;15.20;99.90;;;;;;5096744;28;20244;-44
2022/06/08 05:27:38;;;;;;;6.43;2.20;;;15.30;99.90;;;;;;5096128;28;20246;-43
2022/06/08 05:30:05;;;;;;;4.57;1.90;;;15.30;99.90;;;;;;5096373;28;20179;-45
2022/06/08 05:32:31;;;;;;;6.87;2.20;;;15.40;99.90;;;;;;5096822;28;20236;-44
2022/06/08 05:34:57;;;;;;;6.37;1.73;;;15.50;99.90;;;;;;5096288;28;20171;-46
2022/06/08 05:37:23;;;;;;;4.43;1.83;;;15.50;99.90;;;;;;5096206;28;20175;-45
2022/06/08 05:39:49;;;;;;;6.57;2.10;;;15.60;99.90;;;;;;5095870;28;20621;-44
2022/06/08 05:42:15;;;;;;;4.13;1.97;;;15.60;99.90;;;;;;5095906;28;20175;-44
2022/06/08 05:44:40;;;;;;;4.20;1.70;;;15.60;99.90;;;;;;5095827;28;20175;-44
2022/06/08 05:47:06;;;;;;;3.40;1.70;;;15.70;99.90;;;;;;5095938;28;20222;-43
2022/06/08 05:49:33;;;;;;;4.87;2.40;;;15.70;99.90;;;;;;5095964;28;20223;-45
2022/06/08 05:51:59;;;;;;;3.57;1.67;;;15.80;99.90;;;;;;5095963;28;20167;-44
2022/06/08 05:54:25;;;;;;;4.03;1.80;;;15.90;99.90;;;;;;5095624;28;20541;-44
2022/06/08 05:56:50;;;;;;;5.33;1.73;;;15.90;99.90;;;;;;5095831;28;20183;-43
2022/06/08 05:59:16;;;;;;;2.30;1.50;;;15.90;99.90;;;;;;5095905;28;20202;-44
2022/06/08 06:01:42;;;;;;;1.63;1.23;;;16.00;99.90;;;;;;5095583;28;20274;-43
2022/06/08 06:04:08;;;;;;;1.40;1.30;;;16.00;99.90;;;;;;5095414;28;20203;-44
2022/06/08 06:06:35;;;;;;;8.70;1.80;;;16.10;99.90;;;;;;5095820;28;20195;-44
2022/06/08 06:09:02;;;;;;;2.13;1.43;;;16.20;99.90;;;;;;5077236;28;20206;-45
2022/06/08 06:11:28;;;;;;;4.33;1.70;;;16.30;99.90;;;;;;5095552;28;20182;-43
2022/06/08 06:13:53;;;;;;;4.60;1.40;;;16.40;99.90;;;;;;5095605;28;20667;-43
2022/06/08 06:16:19;;;;;;;2.33;1.37;;;16.50;99.90;;;;;;5096061;28;20271;-44
2022/06/08 06:18:45;;;;;;;1.57;1.40;;;16.60;99.90;;;;;;5095243;28;20195;-42
2022/06/08 06:21:17;;;;;;;3.00;1.37;;;16.70;99.90;;;;;;5077147;28;20787;-42
2022/06/08 06:23:42;;;;;;;1.23;1.13;;;16.80;99.90;;;;;;5095310;28;20226;-43
2022/06/08 06:26:08;;;;;;;3.80;1.60;;;16.90;99.90;;;;;;5095173;28;20202;-44
2022/06/08 06:28:33;;;;;;;1.60;1.30;;;17.00;99.90;;;;;;5094941;28;20195;-44
2022/06/08 06:30:59;;;;;;;1.80;1.30;;;17.10;99.90;;;;;;5094929;28;20521;-44
2022/06/08 06:33:25;;;;;;;3.63;1.60;;;17.20;99.90;;;;;;5095641;28;20258;-44
2022/06/08 06:35:50;;;;;;;2.63;1.50;;;17.30;99.90;;;;;;5095080;28;20230;-45
2022/06/08 06:38:16;;;;;;;5.20;1.60;;;17.40;99.90;;;;;;5095040;28;20729;-43
2022/06/08 06:40:41;;;;;;;3.37;1.57;;;17.50;99.90;;;;;;5094823;28;20213;-44
2022/06/08 06:43:10;;;;;;;3.73;1.10;;;17.60;99.90;;;;;;5094808;28;20178;-43
2022/06/08 06:45:36;;;;;;;2.20;1.33;;;17.70;99.90;;;;;;5094676;28;20202;-43
2022/06/08 06:48:01;;;;;;;6.07;1.33;;;17.80;99.90;;;;;;5095183;28;20213;-45
2022/06/08 06:50:27;;;;;;;6.03;1.57;;;17.80;99.90;;;;;;5095041;28;20186;-44
2022/06/08 06:52:53;;;;;;;4.70;1.40;;;17.90;99.90;;;;;;5094645;28;20227;-44
2022/06/08 06:55:25;;;;;;;5.97;1.43;;;18.00;99.90;;;;;;5094876;28;20171;-44
2022/06/08 06:57:51;;;;;;;2.80;1.07;;;18.00;99.90;;;;;;5094694;28;20615;-44
2022/06/08 07:00:17;;;;;;;4.03;1.33;;;18.00;99.90;;;;;;5094778;28;20255;-43
2022/06/08 07:02:44;;;;;;;1.90;1.27;;;18.10;99.90;;;;;;5094828;28;20186;-45
2022/06/08 07:05:20;;;;;;;3.57;0.97;;;18.00;99.90;;;;;;5094439;28;20175;-43
2022/06/08 07:07:47;;;;;;;2.57;1.43;;;18.00;99.90;;;;;;5094360;28;20525;-44
2022/06/08 07:10:13;;;;;;;1.20;1.10;;;18.10;99.90;;;;;;5094536;28;20186;-43
2022/06/08 07:12:38;;;;;;;1.73;1.63;;;18.10;99.90;;;;;;5094287;28;20167;-45
2022/06/08 07:15:05;;;;;;;2.77;1.53;;;18.10;99.90;;;;;;5093759;28;20518;-46
2022/06/08 07:17:31;;;;;;;3.80;1.40;;;18.20;99.90;;;;;;5094480;28;20193;-44
2022/06/08 07:19:56;;;;;;;1.43;1.20;;;18.20;99.90;;;;;;5094449;28;20174;-45
2022/06/08 07:22:22;;;;;;;4.03;1.30;;;18.20;99.90;;;;;;5093992;28;20182;-45
2022/06/08 07:24:48;;;;;;;4.70;1.13;;;18.30;99.90;;;;;;5094117;28;20179;-44
2022/06/08 07:27:14;;;;;;;1.90;1.43;;;18.40;99.90;;;;;;5094111;28;20217;-44
2022/06/08 07:29:40;;;;;;;2.97;1.10;;;18.60;99.90;;;;;;5094104;28;20598;-45
2022/06/08 07:32:06;;;;;;;2.40;1.43;;;18.60;99.90;;;;;;5094013;28;20167;-45
2022/06/08 07:34:32;;;;;;;2.43;1.20;;;18.70;99.90;;;;;;5093785;28;20213;-44
2022/06/08 07:37:00;;;;;;;3.43;1.20;;;18.80;99.90;;;;;;5094022;28;20235;-44
2022/06/08 07:39:26;;;;;;;4.03;1.47;;;18.80;99.90;;;;;;5075860;28;20339;-44
2022/06/08 07:41:52;;;;;;;4.50;1.10;;;18.90;99.90;;;;;;5093694;28;20654;-46
2022/06/08 07:44:18;;;;;;;2.53;1.27;;;19.00;99.90;;;;;;5094213;28;20190;-42
2022/06/08 07:46:45;;;;;;;2.93;1.30;;;19.10;99.90;;;;;;5094148;28;20199;-42
2022/06/08 07:51:57;;;;;;;3.63;1.30;;;19.50;99.90;;;;;;5094016;28;20533;-42
2022/06/08 07:54:24;;;;;;;1.70;1.17;;;19.70;99.90;;;;;;5093612;28;20179;-40
2022/06/08 07:56:51;;;;;;;2.07;1.30;;;20.00;99.90;;;;;;5093508;28;20185;-43
2022/06/08 07:59:17;;;;;;;2.97;1.30;;;20.20;99.90;;;;;;5093718;28;20206;-42
2022/06/08 08:01:43;;;;;;;2.73;1.23;;;20.30;99.90;;;;;;5093325;28;20286;-44
2022/06/08 08:04:08;;;;;;;2.23;1.40;;;20.50;99.90;;;;;;5093690;28;20225;-43
2022/06/08 08:06:34;;;;;;;1.97;1.40;;;20.60;99.90;;;;;;5093671;28;20203;-43
2022/06/08 08:09:00;;;;;;;3.60;1.20;;;20.80;99.90;;;;;;5093261;28;20217;-40
2022/06/08 08:11:27;;;;;;;4.70;1.40;;;21.10;99.90;;;;;;5093736;28;20235;-40
2022/06/08 08:13:53;;;;;;;5.57;1.30;;;21.20;99.90;;;;;;5093989;28;20288;-40
2022/06/08 08:16:19;;;;;;;2.87;1.50;;;21.40;99.90;;;;;;5094243;28;20177;-39
2022/06/08 08:18:44;;;;;;;4.47;1.40;;;21.50;99.90;;;;;;5094309;28;20195;-40
2022/06/08 08:21:10;;;;;;;3.07;1.10;;;21.60;99.90;;;;;;5094031;28;20193;-39
2022/06/08 08:23:36;;;;;;;2.87;1.20;;;21.80;99.90;;;;;;5094180;28;20182;-42
2022/06/08 08:26:02;;;;;;;4.77;1.43;;;22.00;99.90;;;;;;5094520;28;20701;-40
2022/06/08 08:28:28;;;;;;;6.07;1.47;;;22.10;99.90;;;;;;5098590;28;20218;-40
2022/06/08 08:30:54;;;;;;;2.30;1.50;;;22.30;99.90;;;;;;5098594;28;20219;-41
2022/06/08 08:33:19;;;;;;;5.13;1.50;;;22.40;99.90;;;;;;5079933;28;20179;-41
2022/06/08 08:35:45;;;;;;;3.73;1.20;;;22.60;99.90;;;;;;5098393;28;20175;-41
2022/06/08 08:38:11;;;;;;;2.13;1.40;;;22.70;99.90;;;;;;5097976;28;20194;-41
2022/06/08 08:40:44;;;;;;;2.90;1.40;;;22.80;99.90;;;;;;5097809;28;20174;-40
2022/06/08 08:43:12;;;;;;;2.43;1.40;;;22.90;99.90;;;;;;5098033;28;20162;-40
2022/06/08 08:46:18;;;;;;;4.43;1.20;;;23.00;99.90;;;;;;5079683;28;20202;-41
2022/06/08 08:49:01;;;;;;;3.30;1.03;;;23.10;99.90;;;;;;5097797;28;20186;-41
2022/06/08 08:51:34;;;;;;;2.60;1.07;;;23.10;99.90;;;;;;5097898;28;20171;-40
2022/06/08 08:54:30;;;;;;;5.57;1.40;;;23.10;99.90;;;;;;5098289;28;20163;-40
2022/06/08 08:57:23;;;;;;;8.60;1.40;;;22.90;99.90;;;;;;5097337;28;20163;-39
2022/06/08 08:59:49;;;;;;;3.97;1.10;;;22.80;99.90;;;;;;5097558;28;20210;-39
2022/06/08 09:05:13;;;;;;;7.90;1.57;;;22.60;99.90;;;;;;5097450;28;20285;-41
2022/06/08 09:07:38;;;;;;;3.83;1.30;;;22.60;99.90;;;;;;5097743;28;20651;-42
2022/06/08 09:10:04;;;;;;;4.63;1.50;;;22.50;99.90;;;;;;5097290;28;20181;-41
2022/06/08 09:12:30;;;;;;;4.10;1.13;;;22.40;99.90;;;;;;5097420;28;20638;-39
2022/06/08 09:15:01;;;;;;;5.50;1.30;;;22.20;99.90;;;;;;5097093;28;20202;-39
2022/06/08 09:17:32;;;;;;;6.80;1.33;;;22.00;99.90;;;;;;5096961;28;20227;-41
2022/06/08 09:20:00;;;;;;;5.33;1.27;;;21.90;99.90;;;;;;5079106;28;20555;-40
2022/06/08 09:22:29;;;;;;;3.80;1.40;;;21.70;99.90;;;;;;5097135;28;20189;-41
2022/06/08 09:25:19;;;;;;;3.97;1.40;;;21.50;99.90;;;;;;5096853;28;20186;-40
2022/06/08 09:27:50;;;;;;;5.10;1.67;;;21.30;99.90;;;;;;5096140;28;20205;-40
2022/06/08 09:30:23;;;;;;;5.00;1.73;;;21.20;99.90;;;;;;5096915;28;20529;-42
2022/06/08 09:33:13;;;;;;;6.00;1.50;;;21.00;99.90;;;;;;5078670;28;20179;-41
2022/06/08 09:35:55;;;;;;;4.93;1.53;;;20.90;99.90;;;;;;5097104;28;20224;-40
2022/06/08 09:38:25;;;;;;;3.57;1.27;;;20.80;99.90;;;;;;5096347;28;20279;-40
2022/06/08 09:41:02;;;;;;;5.73;1.90;;;20.70;99.90;;;;;;5096486;28;20265;-41
2022/06/08 09:43:33;;;;;;;4.73;1.83;;;20.80;99.90;;;;;;5096129;28;20619;-40
2022/06/08 09:46:04;;;;;;;3.30;1.30;;;20.90;99.90;;;;;;5096115;28;20294;-41
2022/06/08 09:51:53;;;;;;;5.10;1.77;;;21.10;99.90;;;;;;5096559;28;20170;-43
2022/06/08 09:54:32;;;;;;;9.97;2.13;;;21.20;99.90;;;;;;5096230;28;20171;-42
2022/06/08 09:57:26;;;;;;;7.03;1.57;;;21.30;99.90;;;;;;5095983;28;20243;-39
2022/06/08 10:00:17;;;;;;;3.10;1.27;;;21.30;99.90;;;;;;5096191;28;20640;-42
2022/06/08 10:03:15;;;;;;;9.17;1.70;;;21.20;99.90;;;;;;5095960;28;20189;-41
2022/06/08 10:05:56;;;;;;;5.17;1.20;;;21.30;99.90;;;;;;5095777;28;20227;-41
2022/06/08 10:08:36;;;;;;;3.77;1.40;;;21.20;99.90;;;;;;5095915;28;20738;-41
2022/06/08 10:11:34;;;;;;;8.03;1.50;;;21.20;99.90;;;;;;5095795;28;20189;-42
2022/06/08 10:14:22;;;;;;;5.13;1.63;;;21.10;99.90;;;;;;5096170;28;20159;-42
2022/06/08 10:17:01;;;;;;;5.97;1.10;;;21.10;99.90;;;;;;5096012;28;20534;-41
2022/06/08 10:19:44;;;;;;;9.13;1.70;;;21.10;99.90;;;;;;5095748;28;20194;-40
2022/06/08 10:22:10;;;;;;;5.97;1.50;;;21.10;99.90;;;;;;5096179;28;20266;-42
2022/06/08 10:24:58;;;;;;;3.23;1.30;;;21.10;99.90;;;;;;5095588;28;20197;-43
2022/06/08 10:27:50;;;;;;;6.97;1.83;;;21.10;99.90;;;;;;5096070;28;20286;-42
2022/06/08 10:30:26;;;;;;;5.60;1.57;;;21.00;99.90;;;;;;5085128;28;20194;-42
2022/06/08 10:32:57;;;;;;;3.40;1.13;;;20.80;99.90;;;;;;5096828;28;20189;-42
2022/06/08 10:35:35;;;;;;;4.53;1.13;;;20.60;99.90;;;;;;5087240;28;20156;-41
2022/06/08 10:38:02;;;;;;;4.97;1.30;;;20.40;99.90;;;;;;5077594;28;20546;-40
2022/06/08 10:40:48;;;;;;;4.00;1.20;;;20.30;99.90;;;;;;5095411;28;20171;-41
2022/06/08 10:43:27;;;;;;;4.80;1.37;;;20.20;99.90;;;;;;5095046;28;20242;-40
2022/06/08 10:46:05;;;;;;;6.03;1.67;;;20.10;99.90;;;;;;5095516;28;20197;-43
2022/06/08 10:48:43;;;;;;;3.73;1.20;;;20.00;99.90;;;;;;5095173;28;20193;-43
2022/06/08 10:51:14;;;;;;;3.63;1.23;;;20.00;99.90;;;;;;5094706;28;20527;-42
2022/06/08 10:56:34;;;;;;;5.40;1.67;;;19.70;99.90;;;;;;5095416;28;20174;-44
2022/06/08 10:59:05;;;;;;;6.23;1.63;;;19.60;99.90;;;;;;5094995;28;20708;-41
2022/06/08 11:02:07;;;;;;;4.00;1.07;;;19.50;99.90;;;;;;5094618;28;20277;-43
2022/06/08 11:04:32;;;;;;;2.60;1.30;;;19.50;99.90;;;;;;5095159;28;20532;-42
2022/06/08 11:07:02;;;;;;;2.50;1.20;;;19.40;99.90;;;;;;5094726;28;20198;-44
2022/06/08 11:09:34;;;;;;;6.23;1.43;;;19.30;99.90;;;;;;5094832;28;20199;-42
2022/06/08 11:12:11;;;;;;;6.27;1.40;;;19.20;99.90;;;;;;5094710;28;20177;-43
2022/06/08 11:14:43;;;;;;;4.13;1.33;;;19.20;99.90;;;;;;5094755;28;20178;-42
2022/06/08 11:17:25;;;;;;;2.73;1.67;;;19.20;99.90;;;;;;5094809;28;20179;-41
2022/06/08 11:20:03;;;;;;;3.07;1.00;;;19.20;99.90;;;;;;5094329;28;20198;-42
2022/06/08 11:22:42;;;;;;;3.40;1.50;;;19.20;99.90;;;;;;5094146;28;20166;-42
2022/06/08 11:25:17;;;;;;;4.70;1.40;;;19.10;99.90;;;;;;5094948;28;20183;-42
2022/06/08 11:27:43;;;;;;;4.27;1.33;;;19.20;99.90;;;;;;5094325;28;20202;-44
2022/06/08 11:30:20;;;;;;;5.13;1.37;;;19.20;99.90;;;;;;5093976;28;20171;-40
2022/06/08 11:33:14;;;;;;;6.60;2.23;;;19.10;99.90;;;;;;5094671;28;20204;-41
2022/06/08 11:36:11;;;;;;;5.70;1.40;;;19.10;99.90;;;;;;5094336;28;20177;-43
2022/06/08 11:38:57;;;;;;;7.50;1.60;;;19.10;99.90;;;;;;5088140;28;20207;-42
2022/06/08 11:41:34;;;;;;;7.00;1.60;;;19.10;99.90;;;;;;5094087;28;20175;-43
2022/06/08 11:44:11;;;;;;;4.43;1.40;;;19.20;99.90;;;;;;5094200;28;20167;-42
2022/06/08 11:46:40;;;;;;;5.10;1.73;;;19.20;99.90;;;;;;5094377;28;20214;-44
2022/06/08 11:49:25;;;;;;;4.80;1.67;;;19.30;99.90;;;;;;5093621;28;20689;-43
2022/06/08 11:51:51;;;;;;;5.63;1.50;;;19.30;99.90;;;;;;5094066;28;20163;-41
2022/06/08 11:54:42;;;;;;;7.00;1.40;;;19.40;99.90;;;;;;5094643;28;20197;-41
2022/06/08 11:57:14;;;;;;;2.03;1.00;;;19.40;99.90;;;;;;5089811;28;20194;-43
2022/06/08 11:59:44;;;;;;;2.83;1.20;;;19.40;99.90;;;;;;5093729;28;20222;-43
2022/06/08 12:02:21;;;;;;;3.27;1.33;;;19.40;99.90;;;;;;5093862;28;20246;-42
2022/06/08 12:04:51;;;;;;;3.23;1.33;;;19.40;99.90;;;;;;5093831;28;20187;-42
2022/06/08 12:08:12;;;;;;;3.60;1.33;;;19.40;99.90;;;;;;5093612;28;20658;-43
2022/06/08 12:10:38;;;;;;;5.93;1.70;;;19.30;99.90;;;;;;5075613;28;20716;-43
2022/06/08 12:13:17;;;;;;;3.97;1.57;;;19.30;99.90;;;;;;5093994;28;20170;-43
2022/06/08 12:15:48;;;;;;;3.10;1.10;;;19.20;99.90;;;;;;5093660;28;20198;-43
2022/06/08 12:18:38;;;;;;;4.23;1.77;;;19.20;99.90;;;;;;5093992;28;20204;-42
2022/06/08 12:21:30;;;;;;;3.00;1.03;;;19.20;99.90;;;;;;5093729;28;20175;-42
2022/06/08 12:23:59;;;;;;;3.23;1.40;;;19.20;99.90;;;;;;5075241;28;20232;-42
2022/06/08 12:26:35;;;;;;;4.43;1.37;;;19.20;99.90;;;;;;5093643;28;20238;-43
2022/06/08 12:29:21;;;;;;;4.20;1.20;;;19.20;99.90;;;;;;5093222;28;20204;-41
2022/06/08 12:32:17;;;;;;;2.23;1.30;;;19.30;99.90;;;;;;5093537;28;20160;-43
2022/06/08 12:34:57;;;;;;;4.63;1.30;;;19.40;99.90;;;;;;5074473;28;20240;-42
2022/06/08 12:37:28;;;;;;;3.93;1.27;;;19.40;99.90;;;;;;5093367;28;20166;-42
2022/06/08 12:39:55;;;;;;;4.40;1.50;;;19.40;99.90;;;;;;5093272;28;20190;-43
2022/06/08 12:42:34;;;;;;;2.63;1.43;;;19.40;99.90;;;;;;5093115;28;20172;-42
2022/06/08 12:45:00;;;;;;;4.77;1.60;;;19.40;99.90;;;;;;5093414;28;20212;-44
2022/06/08 12:47:30;;;;;;;3.47;1.30;;;19.40;99.90;;;;;;5093165;28;20241;-42
2022/06/08 12:50:10;;;;;;;2.40;1.10;;;19.40;99.90;;;;;;5092876;28;20227;-42
2022/06/08 12:52:36;;;;;;;2.63;0.93;;;19.30;99.90;;;;;;5093487;28;20167;-44
2022/06/08 12:55:11;;;;;;;4.70;1.10;;;19.10;99.90;;;;;;5092990;28;20804;-44
2022/06/08 12:57:38;;;;;;;1.93;1.00;;;19.00;99.90;;;;;;5074691;28;20226;-43
2022/06/08 13:00:07;;;;;;;5.40;0.97;;;18.70;99.90;;;;;;5093195;28;20759;-43
2022/06/08 13:02:37;;;;;;;2.83;0.90;;;18.50;99.90;;;;;;5093113;28;20186;-42
2022/06/08 13:05:15;;;;;;;1.43;0.80;;;18.30;99.90;;;;;;5093119;28;20186;-42
2022/06/08 13:07:41;;;;;;;3.00;1.00;;;18.20;99.90;;;;;;5092828;28;20183;-40
2022/06/08 13:10:07;;;;;;;3.87;1.00;;;18.20;99.90;;;;;;5092879;28;20528;-43
2022/06/08 13:12:36;;;;;;;2.53;0.70;;;18.20;99.90;;;;;;5093944;28;20265;-42
2022/06/08 13:15:03;;;;;;;2.00;0.90;;;18.10;99.90;;;;;;5096881;28;20179;-42
2022/06/08 13:17:29;;;;;;;1.43;1.00;;;18.20;99.90;;;;;;5096442;28;20189;-41
2022/06/08 13:19:57;;;;;;;2.33;1.07;;;18.10;99.90;;;;;;5096353;28;20202;-41
2022/06/08 13:22:25;;;;;;;2.20;0.90;;;18.10;99.90;;;;;;5096773;28;20194;-42
2022/06/08 13:24:52;;;;;;;4.57;0.97;;;18.00;99.90;;;;;;5096379;28;20167;-43
2022/06/08 13:27:18;;;;;;;1.37;0.90;;;18.00;99.90;;;;;;5096483;28;20229;-43